Flight Track Log - Related Links

Times and Time Zones

All times are in EDT time to prevent confusion due to time zone crossing. See the N931FR flight status page for this flight to view local times or setup timezone preferences in your user account.

Time Position Orientation Groundspeed Altitude Reporting Facility
EDT Latitude Longitude Course Direction KTS MPH feet Rate Location/Type
Wed 08:19:30 PM 39.8333 -104.7333 303° West 169 194 6,300  Level Denver TRACON
Wed 08:20:36 PM 39.8667 -104.8000 303° West 214 246 7,900 1,604 Climbing Denver TRACON
Wed 08:21:11 PM 39.8867 -104.8519 297° West 235 270 9,000 2,103 Climbing Denver Center
Wed 08:22:13 PM 39.9281 -104.9431 301° West 289 333 11,300 2,516 Climbing Denver Center
Wed 08:23:15 PM 39.9711 -105.0453 299° West 319 367 14,200 3,065 Climbing Denver Center
Wed 08:25:19 PM 39.9936 -105.2781 277° West 301 346 20,800 2,919 Climbing Denver Center
Wed 08:26:20 PM 39.9889 -105.3950 267° West 301 346 23,200 1,902 Climbing Denver Center
Wed 08:27:22 PM 39.9839 -105.4958 266° West 301 346 24,700 1,355 Climbing Denver Center
Wed 08:28:24 PM 39.9775 -105.6144 266° West 326 375 26,000 1,210 Climbing Denver Center
Wed 08:29:26 PM 39.9725 -105.7686 268° West 363 418 27,200 1,306 Climbing Denver Center
Wed 08:30:28 PM 39.9725 -105.9047 270° West 369 425 28,700 1,403 Climbing Denver Center
Wed 08:31:30 PM 39.9811 -106.0458 275° West 385 443 30,100 1,073 Climbing Denver Center
Wed 08:32:31 PM 39.9883 -106.1919 274° West 399 459 30,900 976 Climbing Denver Center
Wed 08:33:33 PM 39.9958 -106.3414 274° West 409 471 32,100 1,210 Climbing Denver Center
Wed 08:34:35 PM 40.0036 -106.4658 275° West 410 472 33,400 1,355 Climbing Denver Center
Wed 08:35:37 PM 40.0128 -106.6581 274° West 409 471 34,900 1,258 Climbing Denver Center
Wed 08:36:39 PM 40.0197 -106.7997 274° West 408 470 36,000 532 Climbing Denver Center
Wed 08:37:41 PM 40.0264 -106.9369 274° West 398 458 36,000  Level Denver Center
Wed 08:38:55 PM 40.0342 -107.0997 274° West 404 465 36,000  Level Denver Center
Wed 08:39:57 PM 40.0422 -107.2811 273° West 394 453 36,000  Level Denver Center
Wed 08:40:59 PM 40.0481 -107.4167 273° West 392 451 36,000  Level Denver Center
Wed 08:42:00 PM 40.0542 -107.5756 273° West 392 451 36,000  Level Denver Center
Wed 08:43:02 PM 40.0597 -107.7133 273° West 396 456 36,000  Level Denver Center
Wed 08:44:04 PM 40.0644 -107.8514 273° West 399 459 36,000  Level Denver Center
Wed 08:45:06 PM 40.0719 -108.0144 273° West 403 464 36,000 48 Level Denver Center
Wed 08:46:08 PM 40.0783 -108.1533 273° West 403 464 36,100  Climbing Denver Center
Wed 08:47:09 PM 40.0864 -108.3133 274° West 399 459 36,000 -49 Descending Denver Center
Wed 08:48:11 PM 40.0914 -108.4511 273° West 398 458 36,000  Level Denver Center
Wed 08:49:13 PM 40.0969 -108.6089 273° West 393 452 36,000  Level Denver Center
Wed 08:50:15 PM 40.1031 -108.7447 273° West 393 452 36,000  Level Denver Center
Wed 08:51:19 PM 40.1083 -108.9044 273° West 395 455 36,000  Level Salt Lake Center
Wed 08:52:21 PM 40.0717 -109.0253 248° West 389 448 36,000  Level Salt Lake Center
Wed 08:53:20 PM 39.9706 -109.1264 217° Southwest 412 474 36,000  Level Denver Center
Wed 08:54:21 PM 39.8822 -109.2114 216° Southwest 415 478 36,000  Level Denver Center
Wed 08:55:26 PM 39.7950 -109.3239 225° Southwest 399 459 36,000  Level Salt Lake Center
Wed 08:56:27 PM 39.8094 -109.4344 280° West 339 390 36,000  Level Salt Lake Center
Wed 08:57:29 PM 39.9069 -109.4644 347° North 338 389 36,000 -298 Level Salt Lake Center
Wed 08:58:28 PM 39.9992 -109.4672 359° North 344 396 35,400 -800 Descending Denver Center
Wed 08:59:29 PM 40.0964 -109.4903 350° North 367 422 34,400 -1,000 Descending Denver Center
Wed 09:00:34 PM 40.1864 -109.5714 325° Northwest 349 402 33,300 -952 Descending Salt Lake Center
Wed 09:01:35 PM 40.2486 -109.6450 318° Northwest 320 368 32,400 -1,024 Descending Salt Lake Center
Wed 09:02:37 PM 40.3147 -109.7428 312° West 319 367 31,200 -1,024 Descending Salt Lake Center
Wed 09:03:38 PM 40.3469 -109.8483 292° West 340 391 30,300 -585 Descending Salt Lake Center
Wed 09:04:40 PM 40.3269 -109.9964 260° West 371 427 30,000 -146 Descending Salt Lake Center
Wed 09:05:41 PM 40.3083 -110.1233 259° West 372 428 30,000  Level Salt Lake Center
Wed 09:06:43 PM 40.2881 -110.2500 258° West 371 427 30,000  Level Salt Lake Center
Wed 09:07:44 PM 40.2661 -110.4003 259° West 374 430 30,000 -341 Level Salt Lake Center
Wed 09:08:46 PM 40.2206 -110.5214 244° Southwest 399 459 29,300 -1,258 Descending Salt Lake Center
Wed 09:09:48 PM 40.1389 -110.6506 230° Southwest 413 475 27,400 -1,805 Descending Salt Lake Center
Wed 09:10:49 PM 40.0672 -110.7542 228° Southwest 403 464 25,600 -1,918 Descending Salt Lake Center
Wed 09:11:50 PM 40.0006 -110.8567 230° Southwest 391 450 23,500 -1,854 Descending Salt Lake Center
Wed 09:12:52 PM 39.9231 -110.9761 230° Southwest 388 447 21,800 -1,268 Descending Salt Lake Center
Wed 09:13:53 PM 39.9203 -111.0833 268° West 326 375 20,900 -976 Descending Salt Lake Center
Wed 09:14:55 PM 39.9639 -111.1817 300° West 287 330 19,800 -1,024 Descending Salt Lake Center
Wed 09:15:56 PM 40.0031 -111.2667 301° West 285 328 18,800 -984 Descending Salt Lake Center
Wed 09:16:57 PM 40.0461 -111.3597 301° West 286 329 17,800 -732 Descending Salt Lake Center
Wed 09:17:59 PM 40.0864 -111.4481 301° West 284 327 17,300 -780 Descending Salt Lake Center
Wed 09:19:00 PM 40.1267 -111.5372 301° West 285 328 16,200 -907 Descending Salt Lake Center
Wed 09:19:25 PM 40.1417 -111.5942 289° West 286 329 16,000 -194 Descending Salt Lake Center
Wed 09:20:02 PM 40.1622 -111.6300 307° West 286 329 16,000 -212 Level Salt Lake Center
Wed 09:20:50 PM 40.1994 -111.7206 298° West 288 331 15,700 -583 Descending Salt Lake Center
Wed 09:21:45 PM 40.2575 -111.7739 325° Northwest 290 334 15,000 -568 Descending Salt Lake Center
Wed 09:22:04 PM 40.2689 -111.7756 354° North 281 323 15,000 -1,279 Level Salt Lake Center
Wed 09:22:46 PM 40.3228 -111.8306 322° Northwest 284 327 13,700 -2,032 Descending Salt Lake Center
Wed 09:23:06 PM 40.3475 -111.8442 337° Northwest 281 323 12,900 -1,926 Descending Salt Lake Center
Wed 09:24:07 PM 40.4103 -111.8997 326° Northwest 273 314 11,100 -1,782 Descending Salt Lake Center
Wed 09:24:47 PM 40.4497 -111.9281 331° Northwest 253 291 9,900 -1,869 Descending Salt Lake Center
Wed 09:25:08 PM 40.4756 -111.9267 North 255 293 9,200 -1,279 Descending Salt Lake Center
Wed 09:25:48 PM 40.5206 -111.9381 349° North 252 290 8,600 -871 Descending Salt Lake Center
Wed 09:26:10 PM 40.5433 -111.9358 North 247 284 8,300 -1,279 Descending Salt Lake Center
Wed 09:26:49 PM 40.5819 -111.9425 353° North 228 262 7,300 -1,377 Descending Salt Lake Center
Wed 09:27:11 PM 40.6036 -111.9428 359° North 221 254 6,900 -1,180 Descending Salt Lake Center
Wed 09:27:50 PM 40.6394 -111.9511 350° North 197 227 6,100 -885 Descending Salt Lake Center
Wed 09:28:12 PM 40.6550 -111.9486 North 188 216 6,000 -247 Descending Salt Lake Center
Wed 09:29:03 PM 40.6989 -111.9567 352° North 184 212 5,800 -537 Descending Salt Lake Center
Wed 09:30:15 PM 40.7436 -111.9614 355° North 139 160 4,900 -722 Descending Salt Lake Center
Wed 09:31:16 PM 40.7797 -111.9619 359° North 131 151 4,200 -689 Descending Salt Lake Center

Login

Don't have an account? Register now (free) for customized features, flight alerts, and more!